createdAt,value
2022-08-01T00:00:10.460Z,42.15
2022-08-01T00:02:39.266Z,42.34
2022-08-01T00:05:07.774Z,42.24
2022-08-01T00:07:35.560Z,41.92
2022-08-01T00:10:03.260Z,42.18
2022-08-01T00:12:31.114Z,42.04
2022-08-01T00:14:58.887Z,42.14
2022-08-01T00:17:26.591Z,42.03
2022-08-01T00:19:54.505Z,42.18
2022-08-01T00:22:22.232Z,42.17
2022-08-01T00:24:50.197Z,42.20
2022-08-01T00:27:17.956Z,42.19
2022-08-01T00:30:10.755Z,42.11
2022-08-01T00:32:33.415Z,42.03
2022-08-01T00:35:01.354Z,42.01
2022-08-01T00:37:29.047Z,42.09
2022-08-01T00:39:56.773Z,42.20
2022-08-01T00:42:24.609Z,42.12
2022-08-01T00:44:52.334Z,41.94
2022-08-01T00:47:20.071Z,42.10
2022-08-01T00:49:47.871Z,42.16
2022-08-01T00:52:15.666Z,42.22
2022-08-01T00:54:43.618Z,42.33
2022-08-01T00:57:11.391Z,42.22
2022-08-01T00:59:39.117Z,42.12
2022-08-01T01:02:14.718Z,42.21
2022-08-01T01:04:43.697Z,42.06
2022-08-01T01:07:11.447Z,42.27
2022-08-01T01:09:39.282Z,42.32
2022-08-01T01:12:07.375Z,42.18
2022-08-01T01:14:35.349Z,42.33
2022-08-01T01:17:03.044Z,42.33
2022-08-01T01:19:31.137Z,42.37
2022-08-01T01:21:58.861Z,42.18
2022-08-01T01:24:27.046Z,42.06
2022-08-01T01:26:54.859Z,42.02
2022-08-01T01:29:22.558Z,42.47
2022-08-01T01:31:50.380Z,42.21
2022-08-01T01:34:18.117Z,42.41
2022-08-01T01:36:45.857Z,42.38
2022-08-01T01:39:15.143Z,42.16
2022-08-01T01:41:42.827Z,42.22
2022-08-01T01:44:10.544Z,42.29
2022-08-01T01:46:38.298Z,42.49
2022-08-01T01:49:06.434Z,42.36
2022-08-01T01:51:34.406Z,42.31
2022-08-01T01:54:02.106Z,42.16
2022-08-01T01:56:29.847Z,42.43
2022-08-01T01:58:57.611Z,42.48
2022-08-01T02:01:58.595Z,42.22
2022-08-01T02:04:13.012Z,42.12
2022-08-01T02:06:40.928Z,42.38
2022-08-01T02:09:09.258Z,42.18
2022-08-01T02:11:37.008Z,42.38
2022-08-01T02:14:24.953Z,42.08
2022-08-01T02:16:52.811Z,42.56
2022-08-01T02:19:20.553Z,42.46
2022-08-01T02:21:48.326Z,42.06
2022-08-01T02:24:16.574Z,42.40
2022-08-01T02:26:44.282Z,42.33
2022-08-01T02:29:11.954Z,42.40
2022-08-01T02:31:39.780Z,42.28
2022-08-01T02:34:07.712Z,42.09
2022-08-01T02:36:36.344Z,42.28
2022-08-01T02:39:04.093Z,42.24
2022-08-01T02:41:32.687Z,42.18
2022-08-01T02:44:00.472Z,42.31
2022-08-01T02:46:28.173Z,42.39
2022-08-01T02:48:56.001Z,42.23
2022-08-01T02:51:23.711Z,42.21
2022-08-01T02:53:51.475Z,42.54
2022-08-01T02:56:19.267Z,42.44
2022-08-01T02:58:47.043Z,42.21
2022-08-01T03:01:15.075Z,42.23
2022-08-01T03:03:43.408Z,42.41
2022-08-01T03:06:11.204Z,42.32
2022-08-01T03:08:38.976Z,42.37
2022-08-01T03:11:06.705Z,42.25
2022-08-01T03:13:34.884Z,42.22
2022-08-01T03:16:02.877Z,42.17
2022-08-01T03:18:30.733Z,42.19
2022-08-01T03:20:58.426Z,42.78
2022-08-01T03:23:37.781Z,42.67
2022-08-01T03:26:06.038Z,42.77
2022-08-01T03:28:33.787Z,42.79
2022-08-01T03:31:01.888Z,42.65
2022-08-01T03:33:29.595Z,42.65
2022-08-01T03:35:57.385Z,42.46
2022-08-01T03:38:25.151Z,42.68
2022-08-01T03:40:52.918Z,42.60
2022-08-01T03:43:20.733Z,42.86
2022-08-01T03:45:48.630Z,42.76
2022-08-01T03:48:16.364Z,42.67
2022-08-01T03:50:44.160Z,42.71
2022-08-01T03:53:11.919Z,42.54
2022-08-01T03:55:39.658Z,42.56
2022-08-01T03:58:09.842Z,42.66
2022-08-01T04:00:39.692Z,42.85
2022-08-01T04:03:07.412Z,42.70
2022-08-01T04:05:35.177Z,42.79
2022-08-01T04:08:03.776Z,42.75
2022-08-01T04:10:31.538Z,42.53
2022-08-01T04:12:59.229Z,42.51
2022-08-01T04:15:26.986Z,42.80
2022-08-01T04:17:55.164Z,42.59
2022-08-01T04:20:22.899Z,42.99
2022-08-01T04:22:50.733Z,43.50
2022-08-01T04:25:18.521Z,43.24
2022-08-01T04:27:50.143Z,43.57
2022-08-01T04:30:21.060Z,43.20
2022-08-01T04:32:48.932Z,43.35
2022-08-01T04:35:23.158Z,43.63
2022-08-01T04:38:05.799Z,43.30
2022-08-01T04:40:33.640Z,43.75
2022-08-01T04:43:01.434Z,43.50
2022-08-01T04:45:29.098Z,43.37
2022-08-01T04:47:56.830Z,43.46
2022-08-01T04:50:25.516Z,43.20
2022-08-01T04:52:53.397Z,43.38
2022-08-01T04:55:21.284Z,43.39
2022-08-01T04:57:50.063Z,43.15
2022-08-01T05:00:18.571Z,43.47
2022-08-01T05:02:47.577Z,43.30
2022-08-01T05:05:15.890Z,43.26
2022-08-01T05:07:45.126Z,43.32
2022-08-01T05:10:13.424Z,43.45
2022-08-01T05:12:41.170Z,43.53
2022-08-01T05:15:14.773Z,43.33
2022-08-01T05:17:43.779Z,43.26
2022-08-01T05:20:11.509Z,43.43
2022-08-01T05:22:39.223Z,43.29
2022-08-01T05:25:06.955Z,43.27
2022-08-01T05:27:39.280Z,43.51
2022-08-01T05:30:06.973Z,43.12
2022-08-01T05:32:34.781Z,43.19
2022-08-01T05:35:02.506Z,43.31
2022-08-01T05:37:30.251Z,42.88
2022-08-01T05:39:58.015Z,42.85
2022-08-01T05:42:25.749Z,42.79
2022-08-01T05:44:53.463Z,42.88
2022-08-01T05:47:21.250Z,42.81
2022-08-01T05:49:49.047Z,42.90
2022-08-01T05:52:16.953Z,42.49
2022-08-01T05:54:44.662Z,42.56
2022-08-01T05:57:12.511Z,42.64
2022-08-01T05:59:40.245Z,42.63
2022-08-01T06:02:08.353Z,42.74
2022-08-01T06:04:36.290Z,42.43
2022-08-01T06:07:04.011Z,42.56
2022-08-01T06:09:32.009Z,42.51
2022-08-01T06:11:59.767Z,42.46
2022-08-01T06:14:27.441Z,42.26
2022-08-01T06:16:55.151Z,42.41
2022-08-01T06:19:22.891Z,42.58
2022-08-01T06:21:50.604Z,42.44
2022-08-01T06:24:18.472Z,42.44
2022-08-01T06:26:46.192Z,42.33
2022-08-01T06:29:14.151Z,42.44
2022-08-01T06:31:41.974Z,42.46
2022-08-01T06:34:09.682Z,42.33
2022-08-01T06:36:37.418Z,42.38
2022-08-01T06:39:05.122Z,42.38
2022-08-01T06:41:32.845Z,42.38
2022-08-01T06:44:03.345Z,42.63
2022-08-01T06:46:32.507Z,42.41
2022-08-01T06:49:01.186Z,42.37
2022-08-01T06:51:28.984Z,42.17
2022-08-01T06:53:56.906Z,42.36
2022-08-01T06:56:24.657Z,42.36
2022-08-01T06:58:52.349Z,42.25
2022-08-01T07:01:20.293Z,42.29
2022-08-01T07:03:53.210Z,42.28
2022-08-01T07:06:22.731Z,42.35
2022-08-01T07:08:50.488Z,42.23
2022-08-01T07:11:18.333Z,42.27
2022-08-01T07:13:46.786Z,42.29
2022-08-01T07:16:14.529Z,42.30
2022-08-01T07:18:42.271Z,42.24
2022-08-01T07:21:39.187Z,42.11
2022-08-01T07:23:57.800Z,42.33
2022-08-01T07:26:27.742Z,42.09
2022-08-01T07:28:55.803Z,42.40
2022-08-01T07:31:24.063Z,42.03
2022-08-01T07:33:51.795Z,42.17
2022-08-01T07:36:19.713Z,42.23
2022-08-01T07:38:47.456Z,42.17
2022-08-01T07:41:15.240Z,42.10
2022-08-01T07:43:53.156Z,42.29
2022-08-01T07:46:24.203Z,42.37
2022-08-01T07:48:51.909Z,42.34
2022-08-01T07:51:19.754Z,42.19
2022-08-01T07:53:47.470Z,41.97
2022-08-01T07:56:15.224Z,42.43
2022-08-01T07:58:43.163Z,42.31
2022-08-01T08:01:10.850Z,42.22
2022-08-01T08:03:38.586Z,42.26
2022-08-01T08:06:06.388Z,42.28
2022-08-01T08:08:35.601Z,42.21
2022-08-01T08:11:03.481Z,42.06
2022-08-01T08:13:31.169Z,42.15
2022-08-01T08:15:59.924Z,42.01
2022-08-01T08:18:27.662Z,42.14
2022-08-01T08:20:55.749Z,42.57
2022-08-01T08:23:42.377Z,42.17
2022-08-01T08:26:11.685Z,41.87
2022-08-01T08:28:40.456Z,42.07
2022-08-01T08:31:25.010Z,42.27
2022-08-01T08:33:56.803Z,42.21
2022-08-01T08:36:30.768Z,42.07
2022-08-01T08:38:58.728Z,42.33
2022-08-01T08:41:26.498Z,42.40
2022-08-01T08:43:54.491Z,42.25
2022-08-01T08:46:28.280Z,42.21
2022-08-01T08:48:56.561Z,42.09
2022-08-01T08:51:24.398Z,42.03
2022-08-01T08:53:52.171Z,42.16
2022-08-01T08:56:19.971Z,41.88
2022-08-01T08:58:47.708Z,42.04
2022-08-01T09:01:15.479Z,42.10
2022-08-01T09:03:43.218Z,42.03
2022-08-01T09:06:10.977Z,41.95
2022-08-01T09:08:38.866Z,41.84
2022-08-01T09:11:06.617Z,41.92
2022-08-01T09:13:34.460Z,41.70
2022-08-01T09:16:02.242Z,42.11
2022-08-01T09:18:30.047Z,42.30
2022-08-01T09:20:57.768Z,42.10
2022-08-01T09:23:25.512Z,42.22
2022-08-01T09:25:56.919Z,42.08
2022-08-01T09:28:27.191Z,42.14
2022-08-01T09:30:56.924Z,42.11
2022-08-01T09:33:24.665Z,41.98
2022-08-01T09:35:52.560Z,41.99
2022-08-01T09:38:20.458Z,41.78
2022-08-01T09:40:48.200Z,42.03
2022-08-01T09:43:17.188Z,41.98
2022-08-01T09:45:45.670Z,42.21
2022-08-01T09:48:14.175Z,41.90
2022-08-01T09:50:43.181Z,41.80
2022-08-01T09:53:10.921Z,41.91
2022-08-01T09:55:57.535Z,41.79
2022-08-01T09:58:25.588Z,41.90
2022-08-01T10:00:54.517Z,41.57
2022-08-01T10:03:22.280Z,41.91
2022-08-01T10:05:52.279Z,41.96
2022-08-01T10:08:23.050Z,42.19
2022-08-01T10:10:51.110Z,41.96
2022-08-01T10:13:20.618Z,42.07
2022-08-01T10:15:48.834Z,42.13
2022-08-01T10:18:26.320Z,41.94
2022-08-01T10:20:56.789Z,42.02
2022-08-01T10:23:39.714Z,42.01
2022-08-01T10:26:08.642Z,41.96
2022-08-01T10:28:39.368Z,42.00
2022-08-01T10:31:13.142Z,41.92
2022-08-01T10:33:50.353Z,41.92
2022-08-01T10:36:20.635Z,41.89
2022-08-01T10:38:50.418Z,41.94
2022-08-01T10:41:18.140Z,41.75
2022-08-01T10:43:47.208Z,41.85
2022-08-01T10:46:15.059Z,41.82
2022-08-01T10:48:43.396Z,41.84
2022-08-01T10:51:18.418Z,41.93
2022-08-01T10:53:46.840Z,41.79
2022-08-01T10:56:16.693Z,41.82
2022-08-01T10:58:44.768Z,41.88
2022-08-01T11:01:12.728Z,42.07
2022-08-01T11:03:56.817Z,41.76
2022-08-01T11:06:26.482Z,41.93
2022-08-01T11:08:54.873Z,41.93
2022-08-01T11:11:22.616Z,42.00
2022-08-01T11:13:50.889Z,42.07
2022-08-01T11:16:23.957Z,41.99
2022-08-01T11:18:52.094Z,42.11
2022-08-01T11:21:59.305Z,41.87
2022-08-01T11:24:08.182Z,41.92
2022-08-01T11:26:37.882Z,42.00
2022-08-01T11:29:20.119Z,41.77
2022-08-01T11:31:49.182Z,41.95
2022-08-01T11:34:17.558Z,41.96
2022-08-01T11:37:01.695Z,41.63
2022-08-01T11:39:34.341Z,41.82
2022-08-01T11:42:05.908Z,41.54
2022-08-01T11:44:35.160Z,41.55
2022-08-01T11:47:08.589Z,41.77
2022-08-01T11:49:38.946Z,41.64
2022-08-01T11:52:06.969Z,41.73
2022-08-01T11:54:36.075Z,41.58
2022-08-01T11:57:04.895Z,41.66
2022-08-01T11:59:37.965Z,41.58
2022-08-01T12:02:09.027Z,41.68
2022-08-01T12:04:37.052Z,41.58
2022-08-01T12:07:05.048Z,41.84
2022-08-01T12:09:33.085Z,41.85
2022-08-01T12:12:00.860Z,41.68
2022-08-01T12:14:28.597Z,41.49
2022-08-01T12:16:56.406Z,41.76
2022-08-01T12:19:26.452Z,41.93
2022-08-01T12:21:56.121Z,41.79
2022-08-01T12:24:23.902Z,41.86
2022-08-01T12:26:52.046Z,41.72
2022-08-01T12:29:19.756Z,41.79
2022-08-01T12:31:47.868Z,42.01
2022-08-01T12:34:15.558Z,41.80
2022-08-01T12:36:43.323Z,41.78
2022-08-01T12:39:11.062Z,41.98
2022-08-01T12:41:38.750Z,42.02
2022-08-01T12:44:06.538Z,41.88
2022-08-01T12:46:34.263Z,41.83
2022-08-01T12:49:01.998Z,41.85
2022-08-01T12:51:29.769Z,42.04
2022-08-01T12:53:57.540Z,42.20
2022-08-01T12:56:25.303Z,41.96
2022-08-01T12:58:54.871Z,41.94
2022-08-01T13:01:22.695Z,41.90
2022-08-01T13:03:50.456Z,42.13
2022-08-01T13:06:18.303Z,41.92
2022-08-01T13:08:46.308Z,41.95
2022-08-01T13:11:16.667Z,42.01
2022-08-01T13:13:44.761Z,41.82
2022-08-01T13:16:18.152Z,42.03
2022-08-01T13:19:00.514Z,41.85
2022-08-01T13:21:28.271Z,41.92
2022-08-01T13:24:02.992Z,42.14
2022-08-01T13:26:31.574Z,41.58
2022-08-01T13:28:59.321Z,42.13
2022-08-01T13:31:27.119Z,42.09
2022-08-01T13:34:00.100Z,41.96
2022-08-01T13:36:29.476Z,42.01
2022-08-01T13:39:14.681Z,42.03
2022-08-01T13:41:42.460Z,42.00
2022-08-01T13:44:11.550Z,41.86
2022-08-01T13:46:39.309Z,41.68
2022-08-01T13:49:17.557Z,41.92
2022-08-01T13:51:47.437Z,42.00
2022-08-01T13:54:15.273Z,42.02
2022-08-01T13:56:43.036Z,41.95
2022-08-01T13:59:10.823Z,41.99
2022-08-01T14:01:38.580Z,41.91
2022-08-01T14:04:06.361Z,41.92
2022-08-01T14:06:34.065Z,41.90
2022-08-01T14:09:01.770Z,41.85
2022-08-01T14:11:36.908Z,41.98
2022-08-01T14:14:05.227Z,41.91
2022-08-01T14:16:38.528Z,41.82
2022-08-01T14:19:06.267Z,41.78
2022-08-01T14:21:34.005Z,41.83
2022-08-01T14:24:01.790Z,41.90
2022-08-01T14:26:29.582Z,42.00
2022-08-01T14:28:57.340Z,41.64
2022-08-01T14:31:25.060Z,41.93
2022-08-01T14:33:52.829Z,41.91
2022-08-01T14:36:30.378Z,41.73
2022-08-01T14:39:00.396Z,41.95
2022-08-01T14:41:30.910Z,41.80
2022-08-01T14:43:58.841Z,41.93
2022-08-01T14:46:26.616Z,42.05
2022-08-01T14:48:54.399Z,41.90
2022-08-01T14:51:22.167Z,41.91
2022-08-01T14:53:52.969Z,41.69
2022-08-01T14:56:21.011Z,42.02
2022-08-01T14:58:48.778Z,41.83
2022-08-01T15:01:17.530Z,42.08
2022-08-01T15:03:46.930Z,41.93
2022-08-01T15:06:14.867Z,41.86
2022-08-01T15:08:42.635Z,42.04
2022-08-01T15:11:10.660Z,41.97
2022-08-01T15:13:42.429Z,41.91
2022-08-01T15:16:12.057Z,42.18
2022-08-01T15:18:40.156Z,41.78
2022-08-01T15:21:07.983Z,42.00
2022-08-01T15:23:35.720Z,41.99
2022-08-01T15:26:03.465Z,41.72
2022-08-01T15:28:31.336Z,42.05
2022-08-01T15:30:59.084Z,42.00
2022-08-01T15:33:26.843Z,42.23
2022-08-01T15:35:54.549Z,42.11
2022-08-01T15:38:22.747Z,41.87
2022-08-01T15:40:50.537Z,42.15
2022-08-01T15:43:18.306Z,41.92
2022-08-01T15:45:47.738Z,41.56
2022-08-01T15:48:16.122Z,41.94
2022-08-01T15:50:43.928Z,41.89
2022-08-01T15:53:11.730Z,42.10
2022-08-01T15:55:39.753Z,42.08
2022-08-01T15:58:07.887Z,41.97
2022-08-01T16:00:39.255Z,41.92
2022-08-01T16:03:07.601Z,42.05
2022-08-01T16:05:40.988Z,41.94
2022-08-01T16:08:11.118Z,42.13
2022-08-01T16:10:38.870Z,42.35
2022-08-01T16:13:07.533Z,42.45
2022-08-01T16:15:36.497Z,42.66
2022-08-01T16:18:05.395Z,42.65
2022-08-01T16:20:33.446Z,42.75
2022-08-01T16:23:01.420Z,42.69
2022-08-01T16:25:29.219Z,42.73
2022-08-01T16:27:57.005Z,42.68
2022-08-01T16:30:24.795Z,42.50
2022-08-01T16:33:07.806Z,42.67
2022-08-01T16:35:40.638Z,42.71
2022-08-01T16:40:47.386Z,42.50
2022-08-01T16:43:16.070Z,42.58
2022-08-01T16:45:44.206Z,42.29
2022-08-01T16:48:12.452Z,42.27
2022-08-01T16:50:40.532Z,42.33
2022-08-01T16:53:08.300Z,42.39
2022-08-01T16:55:49.406Z,42.17
2022-08-01T16:58:18.622Z,42.26
2022-08-01T17:00:56.300Z,42.30
2022-08-01T17:03:46.830Z,42.21
2022-08-01T17:06:13.189Z,42.32
2022-08-01T17:08:46.507Z,42.36
2022-08-01T17:11:15.172Z,42.28
2022-08-01T17:13:43.073Z,42.34
2022-08-01T17:16:10.935Z,42.24
2022-08-01T17:18:38.711Z,42.19
2022-08-01T17:21:06.537Z,42.58
2022-08-01T17:23:35.463Z,42.23
2022-08-01T17:26:03.303Z,42.55
2022-08-01T17:28:31.168Z,42.37
2022-08-01T17:30:59.189Z,42.21
2022-08-01T17:33:45.678Z,42.19
2022-08-01T17:36:14.542Z,42.28
2022-08-01T17:38:42.259Z,42.08
2022-08-01T17:41:10.199Z,42.29
2022-08-01T17:43:38.052Z,42.31
2022-08-01T17:46:05.849Z,42.18
2022-08-01T17:48:33.664Z,42.44
2022-08-01T17:51:01.465Z,42.12
2022-08-01T17:53:29.304Z,42.31
2022-08-01T17:55:58.836Z,42.20
2022-08-01T17:58:49.919Z,42.38
2022-08-01T18:01:14.730Z,42.15
2022-08-01T18:03:42.590Z,42.09
2022-08-01T18:06:10.555Z,42.24
2022-08-01T18:08:40.542Z,42.15
2022-08-01T18:11:09.256Z,42.12
2022-08-01T18:13:40.543Z,42.12
2022-08-01T18:16:09.386Z,42.27
2022-08-01T18:18:38.669Z,42.14
2022-08-01T18:21:06.509Z,42.34
2022-08-01T18:23:37.510Z,42.21
2022-08-01T18:26:07.466Z,42.09
2022-08-01T18:28:41.697Z,42.24
2022-08-01T18:31:16.735Z,42.00
2022-08-01T18:33:44.858Z,42.12
2022-08-01T18:36:32.275Z,42.13
2022-08-01T18:39:00.418Z,42.54
2022-08-01T18:41:29.993Z,42.09
2022-08-01T18:44:05.585Z,42.26
2022-08-01T18:46:36.254Z,42.28
2022-08-01T18:49:04.052Z,42.21
2022-08-01T18:51:31.854Z,42.28
2022-08-01T18:53:59.702Z,42.07
2022-08-01T18:56:27.770Z,41.74
2022-08-01T18:58:55.631Z,42.42
2022-08-01T19:01:23.593Z,42.44
2022-08-01T19:03:52.102Z,42.27
2022-08-01T19:06:20.323Z,42.31
2022-08-01T19:08:48.281Z,42.36
2022-08-01T19:11:16.149Z,42.49
2022-08-01T19:13:44.388Z,42.75
2022-08-01T19:16:13.228Z,42.62
2022-08-01T19:18:41.599Z,42.85
2022-08-01T19:21:09.373Z,42.76
2022-08-01T19:24:09.328Z,42.86
2022-08-01T19:26:37.377Z,42.87
2022-08-01T19:29:05.197Z,42.90
2022-08-01T19:31:32.907Z,42.92
2022-08-01T19:34:03.476Z,42.87
2022-08-01T19:36:31.342Z,42.83
2022-08-01T19:38:59.274Z,43.08
2022-08-01T19:41:27.044Z,42.96
2022-08-01T19:43:55.136Z,43.26
2022-08-01T19:46:23.224Z,43.54
2022-08-01T19:48:54.088Z,43.62
2022-08-01T19:51:22.116Z,43.57
2022-08-01T19:53:50.714Z,43.78
2022-08-01T19:56:23.264Z,43.58
2022-08-01T19:58:52.721Z,43.61
2022-08-01T20:01:28.288Z,43.51
2022-08-01T20:03:56.972Z,43.49
2022-08-01T20:06:26.563Z,43.74
2022-08-01T20:08:54.548Z,43.38
2022-08-01T20:11:23.582Z,43.25
2022-08-01T20:13:51.513Z,43.29
2022-08-01T20:16:19.462Z,43.33
2022-08-01T20:18:47.623Z,43.18
2022-08-01T20:21:15.471Z,43.41
2022-08-01T20:23:43.423Z,43.22
2022-08-01T20:26:11.468Z,43.25
2022-08-01T20:28:40.090Z,43.39
2022-08-01T20:31:08.233Z,43.35
2022-08-01T20:33:36.293Z,43.55
2022-08-01T20:36:04.380Z,43.16
2022-08-01T20:38:40.086Z,43.51
2022-08-01T20:41:08.543Z,43.61
2022-08-01T20:43:36.631Z,43.46
2022-08-01T20:46:04.399Z,43.53
2022-08-01T20:48:32.380Z,43.47
2022-08-01T20:51:19.971Z,43.44
2022-08-01T20:53:49.094Z,43.56
2022-08-01T20:56:16.764Z,43.73
2022-08-01T20:58:44.802Z,43.64
2022-08-01T21:01:12.745Z,43.54
2022-08-01T21:03:40.544Z,43.54
2022-08-01T21:06:08.472Z,43.39
2022-08-01T21:08:36.263Z,43.76
2022-08-01T21:11:03.959Z,43.74
2022-08-01T21:13:32.014Z,43.55
2022-08-01T21:16:22.704Z,43.53
2022-08-01T21:18:58.171Z,43.65
2022-08-01T21:21:38.553Z,43.73
2022-08-01T21:24:06.363Z,43.50
2022-08-01T21:26:34.223Z,43.50
2022-08-01T21:29:02.347Z,43.32
2022-08-01T21:31:37.641Z,43.37
2022-08-01T21:34:08.895Z,43.46
2022-08-01T21:36:37.029Z,43.49
2022-08-01T21:39:05.355Z,43.39
2022-08-01T21:41:56.070Z,43.45
2022-08-01T21:44:21.745Z,43.50
2022-08-01T21:46:56.937Z,43.45
2022-08-01T21:49:25.174Z,43.33
2022-08-01T21:51:53.120Z,43.42
2022-08-01T21:54:21.272Z,43.36
2022-08-01T21:56:49.784Z,43.11
2022-08-01T21:59:17.715Z,43.37
2022-08-01T22:01:52.144Z,43.24
2022-08-01T22:04:20.639Z,43.31
2022-08-01T22:06:48.437Z,43.14
2022-08-01T22:09:16.283Z,43.19
2022-08-01T22:11:59.394Z,43.02
2022-08-01T22:14:29.855Z,43.18
2022-08-01T22:16:57.810Z,43.20
2022-08-01T22:19:32.472Z,43.08
2022-08-01T22:22:42.499Z,43.10
2022-08-01T22:25:01.557Z,43.00
2022-08-01T22:28:06.222Z,43.26
2022-08-01T22:30:17.763Z,43.19
2022-08-01T22:32:45.628Z,43.57
2022-08-01T22:35:33.496Z,43.33
2022-08-01T22:38:01.638Z,43.11
2022-08-01T22:40:30.463Z,43.03
2022-08-01T22:42:59.936Z,43.10
2022-08-01T22:45:27.897Z,42.88
2022-08-01T22:47:55.903Z,43.18
2022-08-01T22:50:36.383Z,42.97
2022-08-01T22:53:04.761Z,43.00
2022-08-01T22:55:58.254Z,43.02
2022-08-01T22:58:21.805Z,43.08
2022-08-01T23:00:49.615Z,42.98
2022-08-01T23:03:17.372Z,43.18
2022-08-01T23:05:52.731Z,43.04
2022-08-01T23:08:21.194Z,42.83
2022-08-01T23:10:49.005Z,42.93
2022-08-01T23:13:16.903Z,43.02
2022-08-01T23:15:52.366Z,43.15
2022-08-01T23:18:20.675Z,42.95
2022-08-01T23:20:48.560Z,43.07
2022-08-01T23:23:16.371Z,42.83
2022-08-01T23:25:44.135Z,42.95
2022-08-01T23:28:12.698Z,42.95
2022-08-01T23:30:40.481Z,42.95
2022-08-01T23:33:08.458Z,43.11
2022-08-01T23:35:38.958Z,42.94
2022-08-01T23:38:07.212Z,42.88
2022-08-01T23:40:35.043Z,42.91
2022-08-01T23:43:02.909Z,42.92
2022-08-01T23:46:01.862Z,42.90
2022-08-01T23:48:18.605Z,43.24
2022-08-01T23:50:46.342Z,42.82
2022-08-01T23:53:14.064Z,42.79
2022-08-01T23:55:44.200Z,42.82
2022-08-01T23:58:12.402Z,43.03
